createdAt,value
2019-06-26T00:02:08.085Z,56
2019-06-26T00:07:08.879Z,56
2019-06-26T00:12:08.092Z,57
2019-06-26T00:17:08.824Z,57
2019-06-26T00:22:06.419Z,57
2019-06-26T00:27:07.959Z,58
2019-06-26T00:32:08.710Z,58
2019-06-26T00:37:08.955Z,58
2019-06-26T00:42:07.536Z,59
2019-06-26T00:47:08.696Z,59
2019-06-26T00:52:08.513Z,59
2019-06-26T00:57:07.406Z,60
2019-06-26T01:02:09.313Z,60
2019-06-26T01:07:09.800Z,60
2019-06-26T01:12:08.729Z,61
2019-06-26T01:17:08.719Z,61
2019-06-26T01:22:07.524Z,62
2019-06-26T01:27:08.870Z,62
2019-06-26T01:32:08.533Z,62
2019-06-26T01:37:07.107Z,63
2019-06-26T01:42:08.933Z,63
2019-06-26T01:47:08.826Z,64
2019-06-26T01:52:08.722Z,64
2019-06-26T01:57:06.150Z,64
2019-06-26T02:02:08.781Z,65
2019-06-26T02:07:08.511Z,65
2019-06-26T02:12:08.451Z,65
2019-06-26T02:17:08.323Z,65
2019-06-26T02:22:09.304Z,66
2019-06-26T02:27:08.680Z,66
2019-06-26T02:32:08.425Z,66
2019-06-26T02:37:09.128Z,66
2019-06-26T02:42:07.486Z,66
2019-06-26T02:47:19.790Z,67
2019-06-26T02:57:07.299Z,67
2019-06-26T03:02:07.980Z,67
2019-06-26T03:07:08.248Z,68
2019-06-26T03:12:07.510Z,68
2019-06-26T03:17:07.682Z,68
2019-06-26T03:22:08.451Z,68
2019-06-26T03:27:09.326Z,69
2019-06-26T03:32:07.304Z,69
2019-06-26T03:37:09.322Z,69
2019-06-26T03:42:08.565Z,69
2019-06-26T03:47:08.054Z,69
2019-06-26T03:52:09.309Z,69
2019-06-26T03:57:09.189Z,70
2019-06-26T04:02:07.669Z,70
2019-06-26T04:07:07.851Z,70
2019-06-26T04:12:08.928Z,70
2019-06-26T04:17:08.481Z,70
2019-06-26T04:22:08.407Z,70
2019-06-26T04:27:09.095Z,70
2019-06-26T04:32:08.113Z,70
2019-06-26T04:42:08.368Z,70
2019-06-26T04:47:07.891Z,70
2019-06-26T04:52:08.044Z,70
2019-06-26T04:57:08.421Z,70
2019-06-26T05:02:10.185Z,70
2019-06-26T05:07:06.931Z,70
2019-06-26T05:12:05.582Z,70
2019-06-26T05:17:05.123Z,69
2019-06-26T05:22:04.725Z,69
2019-06-26T05:27:05.449Z,69
2019-06-26T05:32:05.085Z,69
2019-06-26T05:37:04.524Z,69
2019-06-26T05:42:06.831Z,69
2019-06-26T05:47:07.084Z,69
2019-06-26T05:52:05.017Z,69
2019-06-26T06:02:06.316Z,68
2019-06-26T06:07:04.944Z,68
2019-06-26T06:12:04.987Z,68
2019-06-26T06:17:04.378Z,68
2019-06-26T06:22:05.103Z,68
2019-06-26T06:27:04.681Z,68
2019-06-26T06:32:05.563Z,68
2019-06-26T06:37:05.212Z,67
2019-06-26T06:42:05.786Z,67
2019-06-26T06:47:08.800Z,67
2019-06-26T06:52:04.411Z,67
2019-06-26T06:57:04.974Z,66
2019-06-26T07:02:04.699Z,66
2019-06-26T07:07:05.208Z,65
2019-06-26T07:12:08.712Z,65
2019-06-26T07:17:19.803Z,64
2019-06-26T07:22:08.829Z,64
2019-06-26T07:27:08.008Z,64
2019-06-26T07:32:08.376Z,64
2019-06-26T07:37:08.009Z,63
2019-06-26T07:47:12.705Z,63
2019-06-26T07:52:05.003Z,63
2019-06-26T07:57:04.666Z,62
2019-06-26T08:07:05.051Z,61
2019-06-26T08:12:04.859Z,60
2019-06-26T08:27:04.528Z,58
2019-06-26T08:32:05.144Z,58
2019-06-26T08:37:04.992Z,57
2019-06-26T08:42:04.887Z,57
2019-06-26T08:47:04.714Z,57
2019-06-26T08:52:05.505Z,56
2019-06-26T08:57:05.227Z,56
2019-06-26T09:07:05.318Z,55
2019-06-26T09:12:05.137Z,54
2019-06-26T09:17:04.695Z,54
2019-06-26T09:22:05.324Z,53
2019-06-26T09:27:05.014Z,53
2019-06-26T09:32:04.478Z,52
2019-06-26T09:37:05.057Z,52
2019-06-26T09:42:04.836Z,52
2019-06-26T09:47:04.506Z,51
2019-06-26T09:52:05.362Z,51
2019-06-26T09:57:05.062Z,50
2019-06-26T10:02:04.573Z,50
2019-06-26T10:07:05.271Z,49
2019-06-26T10:12:05.390Z,48
2019-06-26T10:17:07.215Z,47
2019-06-26T10:27:05.135Z,46
2019-06-26T10:32:07.684Z,46
2019-06-26T10:37:04.719Z,46
2019-06-26T10:42:04.621Z,46
2019-06-26T10:47:05.176Z,46
2019-06-26T10:52:08.319Z,45
2019-06-26T11:07:07.594Z,45
2019-06-26T11:12:05.997Z,44
2019-06-26T11:17:06.208Z,44
2019-06-26T11:27:08.513Z,43
2019-06-26T11:32:05.065Z,43
2019-06-26T11:42:05.385Z,42
2019-06-26T11:47:05.386Z,42
2019-06-26T11:57:08.057Z,42
2019-06-26T12:02:08.515Z,42
2019-06-26T12:07:08.199Z,42
2019-06-26T12:17:08.052Z,41
2019-06-26T12:22:08.829Z,41
2019-06-26T12:27:07.578Z,40
2019-06-26T12:32:08.240Z,40
2019-06-26T12:37:08.757Z,40
2019-06-26T12:42:07.596Z,40
2019-06-26T12:47:09.608Z,39
2019-06-26T12:52:07.176Z,39
2019-06-26T13:02:08.050Z,38
2019-06-26T13:37:08.729Z,21
2019-06-26T13:47:09.233Z,23
2019-06-26T13:52:07.465Z,24
2019-06-26T13:57:08.877Z,24
2019-06-26T14:02:07.549Z,25
2019-06-26T14:12:08.504Z,26
2019-06-26T14:22:12.992Z,26
2019-06-26T14:32:09.293Z,26
2019-06-26T14:37:09.397Z,26
2019-06-26T14:42:09.108Z,27
2019-06-26T14:47:09.216Z,27
2019-06-26T15:07:08.542Z,27
2019-06-26T15:32:09.480Z,27
2019-06-26T15:47:09.150Z,27
2019-06-26T15:57:09.096Z,27
2019-06-26T16:02:09.015Z,27
2019-06-26T16:07:09.182Z,27
2019-06-26T16:17:09.611Z,27
2019-06-26T16:37:09.239Z,25
2019-06-26T16:42:08.337Z,25
2019-06-26T17:12:08.407Z,22
2019-06-26T17:27:09.281Z,22
2019-06-26T17:32:09.295Z,22
2019-06-26T17:42:08.177Z,22
2019-06-26T17:47:08.230Z,22
2019-06-26T18:12:08.238Z,23
2019-06-26T18:17:21.702Z,23
2019-06-26T18:27:09.710Z,24
2019-06-26T18:32:07.810Z,24
2019-06-26T18:57:08.705Z,27
2019-06-26T19:02:07.577Z,28
2019-06-26T19:07:10.480Z,28
2019-06-26T19:12:10.637Z,29
2019-06-26T19:17:07.164Z,29
2019-06-26T19:37:08.800Z,32
2019-06-26T19:42:06.541Z,32
2019-06-26T19:47:08.574Z,33
2019-06-26T20:32:10.607Z,40
2019-06-26T20:37:08.014Z,40
2019-06-26T20:42:11.471Z,41
2019-06-26T20:47:08.316Z,42
2019-06-26T20:52:09.529Z,43
2019-06-26T20:57:06.873Z,44
2019-06-26T21:02:09.513Z,45
2019-06-26T21:07:07.972Z,46
2019-06-26T21:17:08.539Z,46
2019-06-26T21:22:09.029Z,47
2019-06-26T21:27:11.478Z,47
2019-06-26T21:32:08.268Z,47
2019-06-26T21:37:08.721Z,47
2019-06-26T21:47:10.527Z,48
2019-06-26T21:52:06.976Z,48
2019-06-26T21:57:09.465Z,48
2019-06-26T22:02:08.991Z,48
2019-06-26T22:07:09.385Z,48
2019-06-26T22:12:09.387Z,48
2019-06-26T22:22:10.692Z,48
2019-06-26T22:27:07.714Z,48
2019-06-26T22:32:08.380Z,48
2019-06-26T22:37:11.816Z,48
2019-06-26T22:42:07.623Z,48
2019-06-26T22:47:09.501Z,48
2019-06-26T22:52:10.955Z,48
2019-06-26T22:57:11.025Z,48
2019-06-26T23:02:09.701Z,48
2019-06-26T23:07:10.282Z,48
2019-06-26T23:12:10.278Z,49
2019-06-26T23:17:08.873Z,49
2019-06-26T23:22:11.057Z,49
2019-06-26T23:27:10.062Z,49
2019-06-26T23:32:08.178Z,50
2019-06-26T23:37:11.504Z,50
2019-06-26T23:42:10.592Z,50
2019-06-26T23:47:09.025Z,50
2019-06-26T23:52:11.353Z,51
2019-06-26T23:57:10.923Z,51
